createdAt,value
2019-03-24T00:00:45.306Z,4.80
2019-03-24T00:03:13.914Z,4.80
2019-03-24T00:05:42.521Z,4.80
2019-03-24T00:08:11.136Z,4.70
2019-03-24T00:10:39.677Z,4.70
2019-03-24T00:13:08.321Z,4.70
2019-03-24T00:15:36.869Z,4.70
2019-03-24T00:18:05.554Z,4.70
2019-03-24T00:20:34.175Z,4.60
2019-03-24T00:23:02.743Z,4.60
2019-03-24T00:25:31.310Z,4.50
2019-03-24T00:27:59.853Z,4.40
2019-03-24T00:30:28.446Z,4.40
2019-03-24T00:32:56.985Z,4.40
2019-03-24T00:35:25.594Z,4.30
2019-03-24T00:37:54.166Z,4.20
2019-03-24T00:40:22.916Z,4.10
2019-03-24T00:42:51.539Z,4.00
2019-03-24T00:45:20.174Z,3.90
2019-03-24T00:47:49.565Z,3.80
2019-03-24T00:50:18.257Z,3.70
2019-03-24T00:52:46.867Z,3.70
2019-03-24T00:55:15.546Z,3.60
2019-03-24T00:57:44.182Z,3.60
2019-03-24T01:00:13.572Z,3.60
2019-03-24T01:02:42.185Z,3.60
2019-03-24T01:05:10.885Z,3.60
2019-03-24T01:07:39.570Z,3.60
2019-03-24T01:10:08.672Z,3.60
2019-03-24T01:12:37.354Z,3.50
2019-03-24T01:15:07.005Z,3.50
2019-03-24T01:17:36.025Z,3.40
2019-03-24T01:20:05.838Z,3.40
2019-03-24T01:22:34.369Z,3.40
2019-03-24T01:25:03.049Z,3.40
2019-03-24T01:27:31.617Z,3.40
2019-03-24T01:30:00.109Z,3.40
2019-03-24T01:32:28.640Z,3.40
2019-03-24T01:34:57.142Z,3.30
2019-03-24T01:37:25.610Z,3.30
2019-03-24T01:39:54.155Z,3.30
2019-03-24T01:42:22.815Z,3.30
2019-03-24T01:44:51.362Z,3.20
2019-03-24T01:47:19.979Z,3.20
2019-03-24T01:49:48.550Z,3.20
2019-03-24T01:52:17.283Z,3.20
2019-03-24T01:54:45.832Z,3.10
2019-03-24T01:57:14.663Z,3.10
2019-03-24T01:59:43.134Z,3.00
2019-03-24T02:02:11.674Z,3.00
2019-03-24T02:04:40.250Z,2.90
2019-03-24T02:07:08.796Z,2.90
2019-03-24T02:09:37.414Z,2.80
2019-03-24T02:12:06.150Z,2.80
2019-03-24T02:14:34.626Z,2.70
2019-03-24T02:17:03.239Z,2.60
2019-03-24T02:19:31.856Z,2.60
2019-03-24T02:22:00.331Z,2.50
2019-03-24T02:24:28.885Z,2.50
2019-03-24T02:26:57.450Z,2.40
2019-03-24T02:29:25.986Z,2.40
2019-03-24T02:31:54.454Z,2.40
2019-03-24T02:34:23.247Z,2.40
2019-03-24T02:36:51.786Z,2.40
2019-03-24T02:39:20.407Z,2.40
2019-03-24T02:41:49.053Z,2.30
2019-03-24T02:44:17.526Z,2.30
2019-03-24T02:46:46.079Z,2.30
2019-03-24T02:49:14.622Z,2.30
2019-03-24T02:51:43.170Z,2.30
2019-03-24T02:54:11.743Z,2.30
2019-03-24T02:56:40.351Z,2.20
2019-03-24T02:59:08.968Z,2.20
2019-03-24T03:01:37.610Z,2.20
2019-03-24T03:04:06.293Z,2.10
2019-03-24T03:06:34.930Z,2.10
2019-03-24T03:09:04.954Z,2.10
2019-03-24T03:11:33.492Z,2.10
2019-03-24T03:14:02.126Z,2.00
2019-03-24T03:16:38.226Z,2.00
2019-03-24T03:19:00.878Z,2.00
2019-03-24T03:21:29.415Z,1.90
2019-03-24T03:23:58.067Z,1.90
2019-03-24T03:26:26.609Z,1.80
2019-03-24T03:28:55.154Z,1.80
2019-03-24T03:31:23.730Z,1.80
2019-03-24T03:33:52.425Z,1.70
2019-03-24T03:36:20.969Z,1.60
2019-03-24T03:38:49.588Z,1.60
2019-03-24T03:41:18.136Z,1.50
2019-03-24T03:43:46.718Z,1.50
2019-03-24T03:46:15.258Z,1.40
2019-03-24T03:48:43.824Z,1.40
2019-03-24T03:51:12.408Z,1.30
2019-03-24T03:53:40.966Z,1.30
2019-03-24T03:56:09.565Z,1.30
2019-03-24T03:58:38.121Z,1.20
2019-03-24T04:01:06.809Z,1.20
2019-03-24T04:03:35.358Z,1.20
2019-03-24T04:06:04.009Z,1.10
2019-03-24T04:08:32.569Z,1.10
2019-03-24T04:11:01.108Z,1.00
2019-03-24T04:13:29.674Z,1.00
2019-03-24T04:15:58.223Z,1.00
2019-03-24T04:18:26.834Z,0.90
2019-03-24T04:20:55.383Z,0.90
2019-03-24T04:23:23.955Z,0.90
2019-03-24T04:25:52.505Z,0.80
2019-03-24T04:28:20.983Z,0.80
2019-03-24T04:30:49.632Z,0.80
2019-03-24T04:33:18.181Z,0.80
2019-03-24T04:35:46.737Z,0.70
2019-03-24T04:38:15.304Z,0.70
2019-03-24T04:40:43.855Z,0.70
2019-03-24T04:43:12.409Z,0.70
2019-03-24T04:45:40.976Z,0.60
2019-03-24T04:48:09.518Z,0.70
2019-03-24T04:50:38.063Z,0.60
2019-03-24T04:53:06.709Z,0.60
2019-03-24T04:55:35.183Z,0.60
2019-03-24T04:58:03.788Z,0.60
2019-03-24T05:00:37.341Z,0.60
2019-03-24T05:03:06.330Z,0.70
2019-03-24T05:05:35.094Z,0.70
2019-03-24T05:08:04.406Z,0.70
2019-03-24T05:10:32.949Z,0.80
2019-03-24T05:13:01.558Z,0.80
2019-03-24T05:15:30.130Z,0.90
2019-03-24T05:17:58.597Z,1.00
2019-03-24T05:20:27.068Z,1.10
2019-03-24T05:22:55.717Z,1.20
2019-03-24T05:25:24.261Z,1.30
2019-03-24T05:27:52.730Z,1.40
2019-03-24T05:30:21.329Z,1.50
2019-03-24T05:32:49.948Z,1.60
2019-03-24T05:35:18.559Z,1.70
2019-03-24T05:37:47.134Z,1.80
2019-03-24T05:40:15.676Z,1.90
2019-03-24T05:42:44.216Z,2.00
2019-03-24T05:45:12.963Z,2.10
2019-03-24T05:47:41.498Z,2.20
2019-03-24T05:50:10.908Z,2.30
2019-03-24T05:52:39.685Z,2.30
2019-03-24T05:55:08.301Z,2.40
2019-03-24T05:57:36.853Z,2.50
2019-03-24T06:00:08.758Z,2.50
2019-03-24T06:02:37.429Z,2.60
2019-03-24T06:05:06.441Z,2.80
2019-03-24T06:07:35.069Z,2.90
2019-03-24T06:10:04.952Z,3.10
2019-03-24T06:12:33.519Z,3.30
2019-03-24T06:15:02.204Z,3.50
2019-03-24T06:17:30.809Z,3.60
2019-03-24T06:19:59.386Z,3.80
2019-03-24T06:22:28.003Z,3.90
2019-03-24T06:24:56.549Z,4.10
2019-03-24T06:27:25.188Z,4.20
2019-03-24T06:29:53.657Z,4.30
2019-03-24T06:32:22.200Z,4.40
2019-03-24T06:34:50.779Z,4.50
2019-03-24T06:37:19.321Z,4.60
2019-03-24T06:39:47.862Z,4.70
2019-03-24T06:42:16.436Z,4.80
2019-03-24T06:44:44.980Z,4.90
2019-03-24T06:47:13.526Z,5.00
2019-03-24T06:49:42.074Z,5.10
2019-03-24T06:52:10.685Z,5.20
2019-03-24T06:54:39.204Z,5.30
2019-03-24T06:57:07.742Z,5.40
2019-03-24T06:59:36.285Z,5.50
2019-03-24T07:02:04.846Z,5.60
2019-03-24T07:04:33.322Z,5.70
2019-03-24T07:07:01.999Z,5.80
2019-03-24T07:09:30.651Z,6.00
2019-03-24T07:12:00.155Z,6.20
2019-03-24T07:14:28.883Z,6.30
2019-03-24T07:16:57.537Z,6.40
2019-03-24T07:19:26.154Z,6.60
2019-03-24T07:21:54.699Z,6.60
2019-03-24T07:24:23.274Z,6.60
2019-03-24T07:26:51.818Z,6.70
2019-03-24T07:29:20.361Z,6.80
2019-03-24T07:31:48.929Z,6.90
2019-03-24T07:34:17.397Z,7.10
2019-03-24T07:36:46.000Z,7.30
2019-03-24T07:39:14.566Z,7.50
2019-03-24T07:41:43.033Z,7.60
2019-03-24T07:44:11.575Z,7.60
2019-03-24T07:46:40.154Z,7.70
2019-03-24T07:49:08.691Z,7.80
2019-03-24T07:51:37.228Z,8.00
2019-03-24T07:54:05.864Z,8.20
2019-03-24T07:56:34.435Z,8.50
2019-03-24T07:59:03.109Z,8.70
2019-03-24T08:01:31.614Z,8.70
2019-03-24T08:04:00.168Z,8.70
2019-03-24T08:06:28.770Z,8.60
2019-03-24T08:08:57.265Z,8.70
2019-03-24T08:11:25.737Z,8.70
2019-03-24T08:13:54.304Z,8.80
2019-03-24T08:16:22.850Z,8.80
2019-03-24T08:18:51.389Z,8.80
2019-03-24T08:21:20.001Z,8.80
2019-03-24T08:23:48.654Z,8.80
2019-03-24T08:26:17.193Z,8.90
2019-03-24T08:28:45.734Z,9.00
2019-03-24T08:31:14.374Z,9.20
2019-03-24T08:33:42.913Z,9.40
2019-03-24T08:36:11.533Z,9.50
2019-03-24T08:38:40.164Z,9.70
2019-03-24T08:41:08.781Z,9.80
2019-03-24T08:43:37.463Z,9.90
2019-03-24T08:46:06.033Z,10.10
2019-03-24T08:48:40.831Z,10.30
2019-03-24T08:51:04.912Z,10.50
2019-03-24T08:53:33.485Z,10.50
2019-03-24T08:56:02.028Z,10.40
2019-03-24T08:58:30.648Z,10.20
2019-03-24T09:00:59.289Z,10.30
2019-03-24T09:03:27.764Z,10.30
2019-03-24T09:05:56.445Z,10.20
2019-03-24T09:08:25.092Z,10.20
2019-03-24T09:10:53.778Z,10.10
2019-03-24T09:13:22.406Z,10.00
2019-03-24T09:15:51.043Z,9.90
2019-03-24T09:18:19.582Z,9.80
2019-03-24T09:20:48.219Z,9.70
2019-03-24T09:23:16.786Z,9.60
2019-03-24T09:25:45.346Z,9.60
2019-03-24T09:28:13.878Z,9.60
2019-03-24T09:30:43.181Z,9.70
2019-03-24T09:33:11.870Z,9.90
2019-03-24T09:35:40.489Z,10.00
2019-03-24T09:38:09.185Z,10.10
2019-03-24T09:40:38.211Z,10.10
2019-03-24T09:43:06.892Z,10.10
2019-03-24T09:45:35.632Z,10.30
2019-03-24T09:48:04.812Z,10.20
2019-03-24T09:50:33.429Z,10.10
2019-03-24T09:53:02.143Z,10.10
2019-03-24T09:55:32.980Z,10.10
2019-03-24T09:58:01.608Z,10.10
2019-03-24T10:00:30.281Z,10.10
2019-03-24T10:02:58.894Z,10.10
2019-03-24T10:05:27.515Z,10.30
2019-03-24T10:07:56.226Z,10.30
2019-03-24T10:10:24.914Z,10.30
2019-03-24T10:12:53.542Z,10.40
2019-03-24T10:15:22.254Z,10.50
2019-03-24T10:17:50.869Z,10.50
2019-03-24T10:20:19.412Z,10.60
2019-03-24T10:22:47.980Z,10.70
2019-03-24T10:25:16.594Z,10.70
2019-03-24T10:27:45.137Z,10.80
2019-03-24T10:30:13.889Z,10.80
2019-03-24T10:32:42.502Z,10.80
2019-03-24T10:35:11.189Z,10.90
2019-03-24T10:37:39.812Z,10.90
2019-03-24T10:40:08.896Z,11.00
2019-03-24T10:42:37.707Z,11.00
2019-03-24T10:45:07.489Z,11.10
2019-03-24T10:47:36.088Z,11.20
2019-03-24T10:50:06.933Z,11.20
2019-03-24T10:52:35.814Z,11.20
2019-03-24T10:55:09.849Z,11.30
2019-03-24T10:57:38.865Z,11.30
2019-03-24T11:00:10.061Z,11.20
2019-03-24T11:02:38.662Z,11.20
2019-03-24T11:05:07.581Z,11.20
2019-03-24T11:07:36.194Z,11.30
2019-03-24T11:10:08.291Z,11.20
2019-03-24T11:12:36.898Z,11.30
2019-03-24T11:15:08.084Z,11.30
2019-03-24T11:17:36.722Z,11.30
2019-03-24T11:20:07.295Z,11.30
2019-03-24T11:22:35.906Z,11.30
2019-03-24T11:25:07.292Z,11.30
2019-03-24T11:27:35.905Z,11.30
2019-03-24T11:30:06.589Z,11.40
2019-03-24T11:32:35.230Z,11.50
2019-03-24T11:35:04.747Z,11.60
2019-03-24T11:37:33.293Z,11.70
2019-03-24T11:40:01.946Z,11.80
2019-03-24T11:42:30.489Z,11.80
2019-03-24T11:44:59.110Z,11.60
2019-03-24T11:47:29.032Z,11.60
2019-03-24T11:49:57.598Z,11.70
2019-03-24T11:52:26.145Z,11.70
2019-03-24T11:54:54.686Z,11.70
2019-03-24T11:57:23.162Z,11.70
2019-03-24T11:59:51.842Z,11.70
2019-03-24T12:02:20.401Z,11.70
2019-03-24T12:04:48.906Z,11.60
2019-03-24T12:07:17.451Z,11.60
2019-03-24T12:09:46.029Z,11.60
2019-03-24T12:12:15.536Z,11.70
2019-03-24T12:14:44.087Z,11.80
2019-03-24T12:17:12.660Z,11.80
2019-03-24T12:19:41.206Z,11.90
2019-03-24T12:22:09.862Z,11.90
2019-03-24T12:24:38.430Z,11.90
2019-03-24T12:27:07.045Z,11.80
2019-03-24T12:29:35.590Z,11.80
2019-03-24T12:32:04.320Z,11.80
2019-03-24T12:34:32.857Z,11.70
2019-03-24T12:37:01.330Z,11.60
2019-03-24T12:39:29.828Z,11.50
2019-03-24T12:41:58.305Z,11.60
2019-03-24T12:44:26.850Z,11.70
2019-03-24T12:46:55.357Z,11.90
2019-03-24T12:49:23.841Z,11.90
2019-03-24T12:51:52.460Z,12.00
2019-03-24T12:54:21.052Z,11.90
2019-03-24T12:56:49.589Z,12.00
2019-03-24T12:59:18.166Z,12.20
2019-03-24T13:01:46.712Z,12.40
2019-03-24T13:04:15.254Z,12.40
2019-03-24T13:06:43.821Z,12.50
2019-03-24T13:09:12.357Z,12.50
2019-03-24T13:11:40.898Z,12.50
2019-03-24T13:14:12.638Z,12.50
2019-03-24T13:16:41.176Z,12.50
2019-03-24T13:19:09.717Z,12.40
2019-03-24T13:21:38.288Z,12.40
2019-03-24T13:24:06.900Z,12.40
2019-03-24T13:26:35.459Z,12.30
2019-03-24T13:29:04.169Z,12.40
2019-03-24T13:31:34.745Z,12.50
2019-03-24T13:34:03.280Z,12.40
2019-03-24T13:36:31.905Z,12.40
2019-03-24T13:39:01.556Z,12.50
2019-03-24T13:41:30.094Z,12.60
2019-03-24T13:43:58.645Z,12.70
2019-03-24T13:46:27.218Z,12.80
2019-03-24T13:48:55.834Z,12.90
2019-03-24T13:51:24.445Z,13.10
2019-03-24T13:53:53.025Z,13.30
2019-03-24T13:56:21.639Z,13.30
2019-03-24T13:58:50.174Z,13.30
2019-03-24T14:01:20.922Z,13.40
2019-03-24T14:03:49.530Z,13.40
2019-03-24T14:06:19.351Z,13.10
2019-03-24T14:08:48.072Z,13.10
2019-03-24T14:11:16.761Z,13.00
2019-03-24T14:13:45.324Z,12.80
2019-03-24T14:16:14.139Z,12.60
2019-03-24T14:18:42.753Z,12.60
2019-03-24T14:21:11.358Z,12.40
2019-03-24T14:23:39.998Z,12.30
2019-03-24T14:26:08.537Z,12.20
2019-03-24T14:28:38.470Z,12.10
2019-03-24T14:31:07.001Z,12.00
2019-03-24T14:33:35.609Z,12.00
2019-03-24T14:36:04.262Z,11.90
2019-03-24T14:38:32.800Z,11.90
2019-03-24T14:41:02.886Z,11.80
2019-03-24T14:43:33.698Z,11.80
2019-03-24T14:46:01.844Z,11.90
2019-03-24T14:48:30.390Z,12.00
2019-03-24T14:50:59.036Z,12.00
2019-03-24T14:53:27.726Z,12.00
2019-03-24T14:55:56.342Z,12.00
2019-03-24T14:58:24.913Z,12.00
2019-03-24T15:00:53.523Z,12.00
2019-03-24T15:03:25.126Z,11.90
2019-03-24T15:05:53.773Z,11.90
2019-03-24T15:08:22.323Z,11.90
2019-03-24T15:10:51.023Z,11.90
2019-03-24T15:13:19.667Z,11.90
2019-03-24T15:15:48.222Z,11.90
2019-03-24T15:18:17.037Z,11.90
2019-03-24T15:20:45.768Z,12.00
2019-03-24T15:23:14.390Z,11.80
2019-03-24T15:25:42.931Z,11.80
2019-03-24T15:28:11.578Z,11.80
2019-03-24T15:30:40.192Z,11.70
2019-03-24T15:33:08.743Z,11.70
2019-03-24T15:35:37.323Z,11.60
2019-03-24T15:38:08.762Z,11.60
2019-03-24T15:40:36.325Z,11.50
2019-03-24T15:43:04.906Z,11.50
2019-03-24T15:45:33.513Z,11.50
2019-03-24T15:48:02.165Z,11.40
2019-03-24T15:50:32.414Z,11.30
2019-03-24T15:53:01.026Z,11.20
2019-03-24T15:55:30.832Z,11.20
2019-03-24T15:57:59.326Z,11.10
2019-03-24T16:00:36.544Z,11.10
2019-03-24T16:03:05.117Z,11.00
2019-03-24T16:05:33.756Z,10.90
2019-03-24T16:08:02.434Z,10.90
2019-03-24T16:10:35.103Z,10.80
2019-03-24T16:13:01.275Z,10.70
2019-03-24T16:15:29.816Z,10.70
2019-03-24T16:17:58.358Z,10.70
2019-03-24T16:20:26.949Z,10.60
2019-03-24T16:22:55.482Z,10.60
2019-03-24T16:25:24.140Z,10.50
2019-03-24T16:27:52.844Z,10.40
2019-03-24T16:30:21.458Z,10.40
2019-03-24T16:32:51.539Z,10.30
2019-03-24T16:35:20.041Z,10.20
2019-03-24T16:37:48.637Z,10.10
2019-03-24T16:40:18.679Z,10.00
2019-03-24T16:42:47.579Z,10.00
2019-03-24T16:45:16.233Z,9.90
2019-03-24T16:47:44.869Z,9.80
2019-03-24T16:50:13.555Z,9.80
2019-03-24T16:52:42.089Z,9.70
2019-03-24T16:55:12.231Z,9.60
2019-03-24T16:57:40.936Z,9.60
2019-03-24T17:00:09.828Z,9.50
2019-03-24T17:02:38.459Z,9.40
2019-03-24T17:05:08.145Z,9.30
2019-03-24T17:07:36.883Z,9.30
2019-03-24T17:10:07.033Z,9.20
2019-03-24T17:12:35.765Z,9.10
2019-03-24T17:15:07.444Z,9.00
2019-03-24T17:17:36.059Z,8.90
2019-03-24T17:20:07.683Z,8.80
2019-03-24T17:22:36.646Z,8.80
2019-03-24T17:25:05.450Z,8.70
2019-03-24T17:27:34.001Z,8.70
2019-03-24T17:30:03.431Z,8.60
2019-03-24T17:32:31.976Z,8.50
2019-03-24T17:35:00.622Z,8.50
2019-03-24T17:37:30.095Z,8.40
2019-03-24T17:39:59.281Z,8.40
2019-03-24T17:42:27.849Z,8.30
2019-03-24T17:44:56.381Z,8.20
2019-03-24T17:47:24.919Z,8.20
2019-03-24T17:49:53.506Z,8.10
2019-03-24T17:52:23.514Z,8.00
2019-03-24T17:54:52.058Z,8.00
2019-03-24T17:57:20.689Z,7.90
2019-03-24T17:59:49.306Z,7.80
2019-03-24T18:02:18.006Z,7.70
2019-03-24T18:04:46.577Z,7.70
2019-03-24T18:07:18.126Z,7.70
2019-03-24T18:09:46.664Z,7.80
2019-03-24T18:12:15.303Z,7.90
2019-03-24T18:14:43.852Z,7.90
2019-03-24T18:17:14.076Z,7.90
2019-03-24T18:19:42.621Z,7.90
2019-03-24T18:22:11.975Z,7.90
2019-03-24T18:24:40.704Z,7.90
2019-03-24T18:27:09.360Z,7.90
2019-03-24T18:29:37.968Z,7.90
2019-03-24T18:32:06.509Z,7.90
2019-03-24T18:34:35.185Z,7.90
2019-03-24T18:37:03.788Z,7.80
2019-03-24T18:39:32.325Z,7.70
2019-03-24T18:42:00.958Z,7.70
2019-03-24T18:44:29.663Z,7.60
2019-03-24T18:46:58.203Z,7.50
2019-03-24T18:49:26.850Z,7.50
2019-03-24T18:51:55.531Z,7.40
2019-03-24T18:54:24.075Z,7.40
2019-03-24T18:56:52.860Z,7.40
2019-03-24T18:59:21.401Z,7.40
2019-03-24T19:01:50.070Z,7.40
2019-03-24T19:04:18.705Z,7.40
2019-03-24T19:06:47.313Z,7.30
2019-03-24T19:09:15.968Z,7.30
2019-03-24T19:11:44.714Z,7.30
2019-03-24T19:14:13.470Z,7.30
2019-03-24T19:16:42.159Z,7.30
2019-03-24T19:19:10.765Z,7.20
2019-03-24T19:21:39.298Z,7.20
2019-03-24T19:24:07.888Z,7.20
2019-03-24T19:26:36.429Z,7.20
2019-03-24T19:29:07.653Z,7.10
2019-03-24T19:31:36.217Z,7.10
2019-03-24T19:34:08.032Z,7.00
2019-03-24T19:36:36.639Z,7.00
2019-03-24T19:39:07.721Z,6.90
2019-03-24T19:41:37.911Z,6.90
2019-03-24T19:44:06.597Z,6.90
2019-03-24T19:46:35.129Z,6.90
2019-03-24T19:49:03.899Z,6.80
2019-03-24T19:51:32.521Z,6.80
2019-03-24T19:54:01.061Z,6.70
2019-03-24T19:56:29.633Z,6.70
2019-03-24T19:58:58.262Z,6.60
2019-03-24T20:01:26.798Z,6.60
2019-03-24T20:03:55.377Z,6.60
2019-03-24T20:06:23.995Z,6.60
2019-03-24T20:08:52.607Z,6.50
2019-03-24T20:11:21.184Z,6.40
2019-03-24T20:13:49.652Z,6.40
2019-03-24T20:16:18.264Z,6.30
2019-03-24T20:18:46.806Z,6.20
2019-03-24T20:21:15.315Z,6.10
2019-03-24T20:23:43.930Z,6.00
2019-03-24T20:26:12.627Z,5.80
2019-03-24T20:28:41.166Z,5.60
2019-03-24T20:31:09.700Z,5.40
2019-03-24T20:33:38.337Z,5.20
2019-03-24T20:36:06.945Z,5.10
2019-03-24T20:38:35.490Z,4.90
2019-03-24T20:41:04.206Z,4.70
2019-03-24T20:43:34.293Z,4.50
2019-03-24T20:46:02.907Z,4.40
2019-03-24T20:48:31.483Z,4.20
2019-03-24T20:51:01.630Z,4.10
2019-03-24T20:53:30.199Z,4.00
2019-03-24T20:55:58.767Z,3.80
2019-03-24T20:58:27.318Z,3.70
2019-03-24T21:00:55.992Z,3.60
2019-03-24T21:03:24.497Z,3.50
2019-03-24T21:05:53.045Z,3.50
2019-03-24T21:08:22.453Z,3.40
2019-03-24T21:10:51.021Z,3.30
2019-03-24T21:13:19.495Z,3.20
2019-03-24T21:15:48.113Z,3.20
2019-03-24T21:18:16.694Z,3.10
2019-03-24T21:20:45.314Z,3.00
2019-03-24T21:23:14.002Z,3.00
2019-03-24T21:25:42.593Z,2.90
2019-03-24T21:28:11.135Z,2.90
2019-03-24T21:30:40.723Z,2.80
2019-03-24T21:33:09.541Z,2.80
2019-03-24T21:35:38.232Z,2.70
2019-03-24T21:38:07.013Z,2.70
2019-03-24T21:40:35.946Z,2.70
2019-03-24T21:43:06.415Z,2.60
2019-03-24T21:45:35.037Z,2.60
2019-03-24T21:48:03.695Z,2.50
2019-03-24T21:50:32.313Z,2.40
2019-03-24T21:53:00.794Z,2.40
2019-03-24T21:55:29.442Z,2.30
2019-03-24T21:57:58.140Z,2.30
2019-03-24T22:00:31.630Z,2.20
2019-03-24T22:03:00.187Z,2.20
2019-03-24T22:05:28.738Z,2.10
2019-03-24T22:07:57.386Z,2.00
2019-03-24T22:10:26.001Z,1.90
2019-03-24T22:12:54.494Z,1.80
2019-03-24T22:15:23.004Z,1.80
2019-03-24T22:17:51.626Z,1.70
2019-03-24T22:20:20.242Z,1.60
2019-03-24T22:22:48.813Z,1.60
2019-03-24T22:25:17.293Z,1.50
2019-03-24T22:27:45.918Z,1.50
2019-03-24T22:30:14.770Z,1.40
2019-03-24T22:32:43.317Z,1.30
2019-03-24T22:35:11.866Z,1.30
2019-03-24T22:37:40.361Z,1.20
2019-03-24T22:40:09.975Z,1.20
2019-03-24T22:42:38.593Z,1.10
2019-03-24T22:45:09.013Z,1.10
2019-03-24T22:47:37.563Z,1.00
2019-03-24T22:50:08.021Z,0.90
2019-03-24T22:52:36.866Z,0.90
2019-03-24T22:55:08.769Z,0.80
2019-03-24T22:57:38.485Z,0.70
2019-03-24T23:00:11.837Z,0.70
2019-03-24T23:02:40.453Z,0.60
2019-03-24T23:05:09.236Z,0.60
2019-03-24T23:07:38.918Z,0.50
2019-03-24T23:10:07.601Z,0.50
2019-03-24T23:12:36.075Z,0.40
2019-03-24T23:15:06.594Z,0.40
2019-03-24T23:17:35.141Z,0.40
2019-03-24T23:20:04.933Z,0.30
2019-03-24T23:22:33.515Z,0.30
2019-03-24T23:25:02.131Z,0.20
2019-03-24T23:27:30.682Z,0.20
2019-03-24T23:29:59.336Z,0.20
2019-03-24T23:32:27.879Z,0.10
2019-03-24T23:34:56.430Z,0.10
2019-03-24T23:37:25.069Z,0.10
2019-03-24T23:39:53.546Z,0.10
2019-03-24T23:42:22.160Z,0.20
2019-03-24T23:44:50.740Z,0.20
2019-03-24T23:47:19.214Z,0.20
2019-03-24T23:49:47.760Z,0.20
2019-03-24T23:52:16.333Z,0.20
2019-03-24T23:54:44.944Z,0.20
2019-03-24T23:57:13.494Z,0.20
2019-03-24T23:59:42.206Z,0.20
